Heidelberg, Germany

7:38 AM CET on February 14, 2016 (GMT +0100)
Egelsbach | | Change Station
CLOSE
Current Station
Airport
Location: Egelsbach Frankfurt Egels,
Elevation: 384 ft
Nearby Weather Stations

Elev 384 ft 49.96 °N, 8.64 °E | Updated 18 minutes ago

Light Rain
Light Rain
45 °F
Feels Like 39 °F
N
12
Wind Variable Wind from SW

Today
High -- | Low -- °F
--% Chance of Precip.
Yesterday
High -- | Low -- °F
Precip. -- in
Pressure 29.09 in
Visibility 6.2 miles
Clouds Few 1300 ft
Mostly Cloudy 2400 ft
Mostly Cloudy 3400 ft
Windchill 39 °F
Dew Point 41 °F
Humidity 87%
Rainfall 0.00 in
Snow Depth Not available.
7:37 AM 5:42 PM
Waxing Crescent, 38% visible
METAR EDFE 140620Z 22010KT 9999 -RA FEW013 BKN024 BKN034 07/05 Q0985
Pressure 29.09 in
Visibility 6.2 miles
Clouds Few 1300 ft
Mostly Cloudy 2400 ft
Mostly Cloudy 3400 ft
Windchill 39 °F
Dew Point 41 °F
Humidity 87%
Rainfall 0.00 in
Snow Depth Not available.
7:37 AM 5:42 PM
Waxing Crescent, 38% visible
METAR EDFE 140620Z 22010KT 9999 -RA FEW013 BKN024 BKN034 07/05 Q0985

10-Day Weather Forecast

Almanac

Astronomy

Feb. 14, 2016 Rise Set
Actual Time
Civil Twilight
Nautical Twilight
Astronomical Twilight
Moon
Length of Visible Light
Length of Day
Tomorrow will be .
, % of the Moon is Illuminated

Today's Extremes

Country Highs Country Lows

Community

WunderPhotos

Upload Photos

1,892,757 photos uploaded!

WunderBlog® & News

Nearby

Air Quality

  Air Quality AQ Index Pollutant
Not available.

Snow Depth

Station Depth Elevation

Earthquake Activity

City Distance Mag. Time & Date
Minimum magnitude displayed is 2.5.

Coastal Water Temperatures

Place Temperature

Stations

Nearby Weather Stations

Station Location Temp. Windchill Dew Point Humidity Wind Precip. Elev Updated Type